River Kern, California
Current Conditions -  °F | °C
As of 11:56 AM on Thursday 18 Dec 2014 (Local Time) from KNID Reporting Station
Broken Clouds Broken Clouds  
Wind Chill: 51°   Ceiling: 27000
Heat Index: 51°   Visibility: 10mi
Dew Point: 37°   Wind: 0mph
Humidity: 59%   Direction: NA
Pressure: 30.18"   Gusts: NA
Location:  35.8452°N, 118.355°W
Report Text: KNID 181956Z 00000KT 10SM FEW050 BKN270 11/03 A3018 RMK AO2 SLP226 T01060028 $
Loading
Personal Weather Stations






























Interactive Weather Map New forecast layout! Learn more

10-Day Weather Forecast

Advertisements
Track Severe Weather on mobile